createdAt,value
2023-01-25T00:58:19.990Z,37.10
2023-01-25T00:59:19.965Z,37.80
2023-01-25T01:00:19.955Z,36.71
2023-01-25T01:01:20.019Z,36.98
2023-01-25T01:02:19.904Z,33.16
2023-01-25T01:03:19.888Z,35.43
2023-01-25T01:04:19.928Z,35.80
2023-01-25T01:05:19.841Z,36.27
2023-01-25T01:06:19.839Z,35.51
2023-01-25T01:07:19.803Z,34.41
2023-01-25T01:08:19.800Z,35.80
2023-01-25T01:09:19.781Z,34.14
2023-01-25T01:10:19.758Z,36.76
2023-01-25T01:11:19.738Z,34.93
2023-01-25T01:12:19.716Z,34.95
2023-01-25T01:13:19.719Z,32.95
2023-01-25T01:14:19.686Z,32.89
2023-01-25T01:15:19.674Z,37.32
2023-01-25T01:16:19.725Z,35.17
2023-01-25T01:17:19.618Z,35.23
2023-01-25T01:18:19.655Z,34.82
2023-01-25T01:19:19.601Z,37.82
2023-01-25T01:20:19.582Z,34.21
2023-01-25T01:21:19.545Z,35.06
2023-01-25T01:22:19.543Z,32.35
2023-01-25T01:23:19.523Z,35.97
2023-01-25T01:24:19.552Z,33.99
2023-01-25T01:25:20.490Z,34.37
2023-01-25T01:26:19.472Z,34.75
2023-01-25T01:27:19.471Z,33.90
2023-01-25T01:28:19.466Z,34.26
2023-01-25T01:29:19.451Z,34.80
2023-01-25T01:30:19.417Z,35.47
2023-01-25T01:31:19.470Z,35.83
2023-01-25T01:32:19.580Z,34.96
2023-01-25T01:33:19.357Z,33.78
2023-01-25T01:34:19.339Z,34.00
2023-01-25T01:35:19.327Z,33.28
2023-01-25T01:36:19.395Z,33.82
2023-01-25T01:37:19.289Z,32.52
2023-01-25T01:38:19.274Z,32.67
2023-01-25T01:39:19.264Z,33.72
2023-01-25T01:40:19.242Z,33.80
2023-01-25T01:41:19.231Z,31.36
2023-01-25T01:42:19.226Z,32.67
2023-01-25T01:43:19.198Z,33.38
2023-01-25T01:44:19.211Z,33.83
2023-01-25T01:45:19.174Z,33.30
2023-01-25T01:46:19.194Z,34.92
2023-01-25T01:47:19.146Z,33.36
2023-01-25T01:48:19.142Z,31.32
2023-01-25T01:49:19.131Z,32.76
2023-01-25T01:50:19.127Z,33.64
2023-01-25T01:51:19.748Z,33.36
2023-01-25T01:52:19.104Z,32.94
2023-01-25T01:53:19.120Z,33.96
2023-01-25T01:54:19.086Z,33.10
2023-01-25T01:55:19.067Z,32.67
2023-01-25T01:56:19.099Z,32.71
2023-01-25T01:57:19.050Z,32.58
2023-01-25T01:58:19.058Z,32.41
2023-01-25T01:59:19.049Z,31.08
2023-01-25T02:00:19.638Z,32.05
2023-01-25T02:01:19.046Z,31.65
2023-01-25T02:02:19.042Z,31.93
2023-01-25T02:03:18.975Z,32.28
2023-01-25T02:04:18.990Z,32.92
2023-01-25T02:05:18.904Z,30.40
2023-01-25T02:06:18.901Z,32.17
2023-01-25T02:07:18.850Z,31.98
2023-01-25T02:08:18.835Z,32.19
2023-01-25T02:09:18.865Z,32.48
2023-01-25T02:10:18.836Z,32.06
2023-01-25T02:11:18.769Z,32.88
2023-01-25T02:12:18.766Z,34.03
2023-01-25T02:13:18.757Z,31.07
2023-01-25T02:14:18.724Z,29.72
2023-01-25T02:15:18.711Z,33.43
2023-01-25T02:16:18.775Z,33.65
2023-01-25T02:17:18.675Z,33.10
2023-01-25T02:18:18.686Z,31.46
2023-01-25T02:19:18.667Z,32.77
2023-01-25T02:20:18.628Z,33.91
2023-01-25T02:21:18.609Z,31.81
2023-01-25T02:22:18.600Z,31.09
2023-01-25T02:23:18.573Z,32.25
2023-01-25T02:24:18.669Z,30.43
2023-01-25T02:25:18.541Z,32.51
2023-01-25T02:26:18.537Z,30.07
2023-01-25T02:27:18.512Z,32.22
2023-01-25T02:28:18.489Z,29.68
2023-01-25T02:29:18.473Z,32.00
2023-01-25T02:30:18.462Z,30.05
2023-01-25T02:31:18.534Z,32.32
2023-01-25T02:32:18.484Z,29.31
2023-01-25T02:33:18.392Z,31.04
2023-01-25T02:34:18.378Z,31.34
2023-01-25T02:35:18.346Z,29.10
2023-01-25T02:36:18.331Z,28.26
2023-01-25T02:37:18.299Z,31.57
2023-01-25T02:38:18.300Z,27.32
2023-01-25T02:39:20.130Z,29.21
2023-01-25T02:40:18.250Z,31.78
2023-01-25T02:41:18.218Z,28.74
2023-01-25T02:42:18.224Z,30.15
2023-01-25T02:43:18.172Z,30.27
2023-01-25T02:44:18.153Z,28.46
2023-01-25T02:45:18.141Z,28.11
2023-01-25T02:46:18.134Z,28.77
2023-01-25T02:47:18.086Z,31.15
2023-01-25T02:48:18.072Z,31.95
2023-01-25T02:49:18.066Z,30.96
2023-01-25T02:50:18.030Z,28.55
2023-01-25T02:51:18.024Z,28.57
2023-01-25T02:52:18.065Z,28.60
2023-01-25T02:53:18.115Z,29.61
2023-01-25T02:54:18.159Z,30.15
2023-01-25T02:55:18.206Z,29.20
2023-01-25T02:56:18.240Z,27.97
2023-01-25T02:57:18.279Z,30.42
2023-01-25T02:58:18.347Z,30.72
2023-01-25T02:59:18.365Z,29.74
2023-01-25T03:00:18.418Z,28.99
2023-01-25T03:01:18.491Z,27.82
2023-01-25T03:02:18.524Z,29.05
2023-01-25T05:20:24.954Z,28.62
2023-01-25T05:21:25.022Z,29.01
2023-01-25T05:22:25.063Z,28.10
2023-01-25T05:23:25.104Z,27.86
2023-01-25T05:24:25.292Z,27.53
2023-01-25T05:25:25.197Z,29.12
2023-01-25T05:26:25.242Z,27.42
2023-01-25T05:27:25.315Z,26.43
2023-01-25T05:28:25.331Z,27.53
2023-01-25T05:29:25.379Z,26.50
2023-01-25T05:30:25.426Z,27.93
2023-01-25T05:31:25.545Z,27.00
2023-01-25T05:32:25.528Z,26.42
2023-01-25T05:33:25.575Z,26.86
2023-01-25T05:34:25.626Z,26.31
2023-01-25T05:35:25.662Z,25.38
2023-01-25T05:36:25.725Z,28.09
2023-01-25T05:37:25.776Z,27.35
2023-01-25T05:38:25.814Z,28.42
2023-01-25T05:39:25.860Z,28.51
2023-01-25T05:40:25.909Z,27.60
2023-01-25T05:41:25.992Z,29.21
2023-01-25T05:42:26.021Z,27.36
2023-01-25T05:43:26.060Z,26.39
2023-01-25T05:44:26.108Z,26.57
2023-01-25T05:45:26.192Z,27.28
2023-01-25T05:46:26.276Z,26.77
2023-01-25T05:47:26.260Z,29.88
2023-01-25T05:48:26.297Z,29.61
2023-01-25T05:49:26.343Z,27.43
2023-01-25T05:50:26.399Z,28.33
2023-01-25T05:51:26.441Z,28.98
2023-01-25T05:52:26.480Z,29.29
2023-01-25T05:53:26.546Z,26.62
2023-01-25T05:54:26.593Z,27.39
2023-01-25T05:55:26.637Z,28.79
2023-01-25T05:56:26.669Z,27.42
2023-01-25T05:57:26.718Z,29.56
2023-01-25T05:58:26.794Z,28.04
2023-01-25T05:59:26.830Z,28.92
2023-01-25T06:00:26.836Z,26.82
2023-01-25T06:01:26.876Z,27.80
2023-01-25T06:02:27.062Z,30.15
2023-01-25T06:03:27.087Z,28.93
2023-01-25T06:04:27.011Z,27.07
2023-01-25T06:05:27.108Z,27.07
2023-01-25T06:06:27.107Z,28.46
2023-01-25T06:07:27.150Z,29.25
2023-01-25T06:08:27.190Z,27.33
2023-01-25T06:09:27.280Z,27.06
2023-01-25T06:10:27.286Z,28.59
2023-01-25T06:11:27.335Z,28.99
2023-01-25T06:12:29.382Z,29.53
2023-01-25T06:13:27.363Z,28.14
2023-01-25T06:14:27.334Z,26.95
2023-01-25T06:15:27.320Z,25.84
2023-01-25T06:16:27.298Z,26.27
2023-01-25T06:17:27.277Z,26.79
2023-01-25T06:18:28.079Z,27.68
2023-01-25T06:19:27.295Z,26.94
2023-01-25T06:20:27.269Z,26.24
2023-01-25T06:21:27.238Z,29.19
2023-01-25T06:22:27.211Z,30.36
2023-01-25T06:23:27.198Z,27.05
2023-01-25T06:24:27.200Z,29.45
2023-01-25T06:25:27.143Z,30.28
2023-01-25T06:46:28.097Z,69.23
2023-01-25T06:47:28.112Z,73.73
2023-01-25T06:48:28.157Z,83.11
2023-01-25T06:49:28.205Z,76.91
2023-01-25T06:50:28.239Z,84.33
2023-01-25T06:51:28.282Z,87.33
2023-01-25T06:52:29.262Z,95.73
2023-01-25T06:53:28.308Z,103.52
2023-01-25T06:54:28.308Z,108.02
2023-01-25T06:55:28.295Z,116.11
2023-01-25T06:56:28.255Z,122.94
2023-01-25T06:57:28.252Z,123.48
2023-01-25T06:58:28.228Z,130.77
2023-01-25T06:59:28.183Z,138.19
2023-01-25T07:00:28.173Z,146.94
2023-01-25T07:01:28.280Z,149.51
2023-01-25T07:02:28.372Z,147.92
2023-01-25T07:03:28.265Z,155.64
2023-01-25T07:04:28.318Z,158.36
2023-01-25T07:05:28.340Z,161.11
2023-01-25T07:06:28.386Z,164.95
2023-01-25T07:07:28.421Z,171.72
2023-01-25T07:09:28.474Z,173.55
2023-01-25T07:10:28.520Z,177.81
2023-01-25T07:11:28.536Z,180.14
2023-01-25T07:12:28.585Z,179.65
2023-01-25T07:13:28.629Z,181.24
2023-01-25T07:14:28.685Z,181.05
2023-01-25T07:15:28.665Z,182.08
2023-01-25T07:16:28.693Z,182.59
2023-01-25T07:17:28.727Z,183.28
2023-01-25T07:18:28.762Z,183.49
2023-01-25T07:19:28.777Z,184.88
2023-01-25T07:20:28.840Z,181.65
2023-01-25T07:21:28.859Z,181.31
2023-01-25T07:22:28.901Z,183.13
2023-01-25T07:23:28.905Z,185.00
2023-01-25T07:24:28.944Z,188.30
2023-01-25T07:25:28.950Z,190.75
2023-01-25T07:26:28.981Z,194.92
2023-01-25T07:27:29.030Z,200.68
2023-01-25T07:28:29.067Z,205.94
2023-01-25T07:29:29.081Z,211.54
2023-01-25T07:30:29.093Z,215.88
2023-01-25T07:31:29.132Z,220.21
2023-01-25T07:32:29.162Z,225.47
2023-01-25T07:33:29.196Z,232.93
2023-01-25T07:34:29.208Z,239.58
2023-01-25T07:35:29.246Z,241.27
2023-01-25T07:38:29.313Z,250.00
2023-01-25T10:21:28.733Z,201.50
2023-01-25T10:57:27.473Z,237.11
2023-01-25T10:58:27.391Z,244.88
2023-01-25T10:59:27.344Z,248.04
2023-01-25T11:00:29.915Z,249.99
2023-01-25T11:01:27.341Z,250.00
2023-01-25T11:02:27.244Z,249.50
2023-01-25T11:03:27.179Z,249.57
2023-01-25T11:04:27.120Z,249.77
2023-01-25T11:05:27.116Z,249.65
2023-01-25T11:06:28.476Z,250.00
2023-01-25T11:07:26.994Z,250.21
2023-01-25T11:08:26.952Z,250.85
2023-01-25T11:09:26.892Z,253.19
2023-01-25T11:10:26.851Z,257.15
2023-01-25T11:11:26.792Z,250.58
2023-01-25T11:12:26.767Z,252.55
2023-01-25T11:13:26.728Z,256.03
2023-01-25T11:14:26.681Z,259.91
2023-01-25T11:15:26.645Z,263.36
2023-01-25T11:16:26.608Z,250.00
2023-01-25T11:17:26.551Z,249.89
2023-01-25T11:18:26.554Z,249.12
2023-01-25T11:19:26.463Z,250.00
2023-01-25T11:20:26.422Z,249.55
2023-01-25T11:21:26.399Z,249.99
2023-01-25T11:22:26.331Z,251.36
2023-01-25T11:23:26.287Z,255.09
2023-01-25T11:24:26.280Z,250.32
2023-01-25T11:25:26.225Z,252.80
2023-01-25T11:26:26.158Z,257.19
2023-01-25T11:27:26.153Z,263.04
2023-01-25T11:28:26.069Z,269.56
2023-01-25T11:29:26.556Z,256.50
2023-01-25T11:30:25.995Z,248.87
2023-01-25T11:31:26.023Z,249.25
2023-01-25T11:32:25.891Z,250.00
2023-01-25T11:33:25.836Z,249.46
2023-01-25T11:34:25.806Z,248.87
2023-01-25T11:35:25.744Z,248.17
2023-01-25T11:36:25.709Z,247.47
2023-01-25T11:37:25.676Z,246.85
2023-01-25T11:38:25.642Z,247.77
2023-01-25T11:39:25.581Z,245.40
2023-01-25T11:40:25.539Z,238.06
2023-01-25T11:41:25.500Z,229.42
2023-01-25T11:42:25.459Z,230.30
2023-01-25T11:43:25.406Z,222.89
2023-01-25T11:44:25.397Z,223.19
2023-01-25T11:45:25.350Z,217.31
2023-01-25T11:46:25.880Z,213.73
2023-01-25T11:47:25.253Z,207.30
2023-01-25T11:48:25.223Z,206.62
2023-01-25T11:49:25.148Z,202.92
2023-01-25T11:50:25.119Z,201.86
2023-01-25T11:51:25.069Z,200.51
2023-01-25T11:52:25.031Z,197.11
2023-01-25T14:21:19.612Z,120.72
2023-01-25T14:22:19.553Z,123.35
2023-01-25T14:23:19.451Z,128.48
2023-01-25T14:24:19.448Z,128.44
2023-01-25T14:25:19.296Z,134.44
2023-01-25T14:26:19.215Z,141.23
2023-01-25T14:27:19.167Z,144.72
2023-01-25T14:28:19.095Z,147.73
2023-01-25T14:29:31.754Z,142.51
2023-01-25T14:31:20.407Z,136.70
2023-01-25T14:32:18.828Z,134.04
2023-01-25T14:33:18.722Z,129.51
2023-01-25T14:34:18.669Z,127.04
2023-01-25T14:35:18.531Z,125.38
2023-01-25T14:36:25.194Z,123.35
2023-01-25T14:37:19.357Z,123.38
2023-01-25T14:38:18.279Z,122.15
2023-01-25T14:39:18.196Z,121.47
2023-01-25T14:40:18.112Z,120.25
2023-01-25T14:41:18.056Z,120.46
2023-01-25T14:42:17.982Z,118.49
2023-01-25T14:43:17.901Z,117.56
2023-01-25T14:44:17.846Z,115.83
2023-01-25T14:45:19.322Z,113.64
2023-01-25T14:46:17.721Z,113.77
2023-01-25T14:47:17.632Z,112.04
2023-01-25T14:48:17.584Z,111.71
2023-01-25T14:49:17.524Z,111.49
2023-01-25T14:50:17.460Z,108.88
2023-01-25T14:51:17.416Z,109.91
2023-01-25T14:52:17.358Z,107.71
2023-01-25T14:53:17.294Z,107.50
2023-01-25T14:54:17.254Z,106.92
2023-01-25T14:55:17.194Z,106.23
2023-01-25T14:56:17.124Z,103.24
2023-01-25T14:57:17.086Z,104.38
2023-01-25T14:58:17.026Z,104.59
2023-01-25T14:59:16.984Z,102.73
2023-01-25T15:00:16.920Z,102.22
2023-01-25T15:01:16.873Z,101.25
2023-01-25T15:02:16.868Z,100.94
2023-01-25T15:03:16.781Z,101.88
2023-01-25T15:04:16.730Z,100.33
2023-01-25T15:05:16.683Z,101.09
2023-01-25T15:06:16.621Z,100.65
2023-01-25T15:07:18.326Z,99.99
2023-01-25T15:08:16.526Z,101.69
2023-01-25T15:09:16.480Z,100.68
2023-01-25T15:10:16.421Z,100.04
2023-01-25T15:11:16.372Z,99.84
2023-01-25T15:12:16.323Z,101.56
2023-01-25T15:13:16.299Z,101.85
2023-01-25T15:14:16.235Z,99.86
2023-01-25T15:15:16.200Z,99.59
2023-01-25T15:16:16.213Z,99.75
2023-01-25T15:17:16.109Z,100.37
2023-01-25T15:18:16.058Z,99.00
2023-01-25T15:19:16.028Z,99.20
2023-01-25T15:20:16.000Z,100.93
2023-01-25T15:21:15.933Z,98.50
2023-01-25T15:22:15.942Z,98.94
2023-01-25T15:23:15.953Z,99.80
2023-01-25T15:24:15.992Z,99.87
2023-01-25T15:25:23.969Z,99.90
2023-01-25T15:26:16.922Z,100.02
2023-01-25T15:27:15.888Z,99.10
2023-01-25T15:28:15.851Z,99.23
2023-01-25T15:29:15.828Z,99.36
2023-01-25T15:30:15.777Z,96.99
2023-01-25T15:31:15.896Z,97.58
2023-01-25T15:32:15.705Z,98.94
2023-01-25T15:33:15.673Z,99.77
2023-01-25T15:34:15.627Z,99.26
2023-01-25T15:35:15.579Z,98.58
2023-01-25T15:36:15.534Z,98.16
2023-01-25T15:37:15.499Z,98.12
2023-01-25T15:38:15.448Z,99.55
2023-01-25T15:39:15.412Z,98.43
2023-01-25T15:40:15.374Z,99.41
2023-01-25T15:41:15.324Z,99.20
2023-01-25T15:42:15.259Z,98.53
2023-01-25T15:43:15.227Z,101.83
2023-01-25T15:44:15.183Z,100.13
2023-01-25T15:45:15.148Z,99.72
2023-01-25T15:46:15.184Z,98.81
2023-01-25T15:47:15.049Z,100.10
2023-01-25T19:01:07.753Z,86.46
2023-01-25T19:02:07.704Z,87.33
2023-01-25T19:03:07.755Z,87.24
2023-01-25T19:04:07.627Z,86.18
2023-01-25T19:05:07.608Z,86.92
2023-01-25T19:06:07.561Z,87.62
2023-01-25T19:07:07.548Z,87.72
2023-01-25T19:08:07.503Z,85.93
2023-01-25T19:09:07.459Z,86.32
2023-01-25T19:10:07.472Z,85.71
2023-01-25T19:11:07.415Z,85.95
2023-01-25T19:12:07.368Z,85.32
2023-01-25T19:13:07.333Z,86.29
2023-01-25T19:14:07.313Z,85.12
2023-01-25T19:15:07.301Z,85.00
2023-01-25T19:16:07.262Z,85.98
2023-01-25T19:17:07.205Z,85.35
2023-01-25T19:18:07.194Z,85.53
2023-01-25T19:19:07.145Z,85.44
2023-01-25T19:20:07.150Z,84.75
2023-01-25T19:21:07.085Z,84.58
2023-01-25T19:22:07.045Z,84.63
2023-01-25T19:23:07.031Z,84.40
2023-01-25T19:24:07.011Z,84.11
2023-01-25T19:25:06.959Z,84.28
2023-01-25T19:26:06.912Z,84.06
2023-01-25T19:27:06.887Z,84.20
2023-01-25T19:28:06.849Z,84.42
2023-01-25T19:29:06.818Z,84.27
2023-01-25T19:31:06.811Z,84.59
2023-01-25T19:32:06.695Z,83.25
2023-01-25T19:33:06.676Z,84.04
2023-01-25T19:34:06.629Z,84.14
2023-01-25T19:37:06.514Z,85.26
2023-01-25T20:04:06.085Z,82.19
2023-01-25T20:14:05.305Z,80.24
2023-01-25T20:15:05.254Z,80.04
2023-01-25T20:16:05.262Z,80.60
2023-01-25T20:17:05.198Z,79.09
2023-01-25T20:18:05.160Z,79.42
2023-01-25T20:19:05.136Z,79.29
2023-01-25T20:20:05.111Z,79.28
2023-01-25T20:21:05.128Z,80.28
2023-01-25T20:22:05.057Z,79.46
2023-01-25T20:23:05.024Z,78.61
2023-01-25T20:24:05.057Z,79.92
